sensor_id;sensor_type;location;lat;lon;timestamp;P1;durP1;ratioP1;P2;durP2;ratioP2
23163;SDS011;31429;42.674;23.350;2023-07-16T00:00:32;18.48;;;13.90;;
23163;SDS011;31429;42.674;23.350;2023-07-16T00:01:32;18.80;;;15.38;;
23163;SDS011;31429;42.674;23.350;2023-07-16T00:02:33;20.58;;;14.95;;
23163;SDS011;31429;42.674;23.350;2023-07-16T00:03:33;17.65;;;14.18;;
23163;SDS011;31429;42.674;23.350;2023-07-16T00:04:35;17.52;;;13.77;;
23163;SDS011;31429;42.674;23.350;2023-07-16T00:05:36;17.73;;;14.50;;
23163;SDS011;31429;42.674;23.350;2023-07-16T00:06:37;20.02;;;16.10;;
23163;SDS011;31429;42.674;23.350;2023-07-16T00:07:38;14.48;;;11.82;;
23163;SDS011;31429;42.674;23.350;2023-07-16T00:08:38;15.52;;;12.55;;
23163;SDS011;31429;42.674;23.350;2023-07-16T00:09:39;13.75;;;12.32;;
23163;SDS011;31429;42.674;23.350;2023-07-16T00:10:40;18.42;;;16.08;;
23163;SDS011;31429;42.674;23.350;2023-07-16T00:11:40;21.40;;;15.23;;
23163;SDS011;31429;42.674;23.350;2023-07-16T00:12:41;16.23;;;12.95;;
23163;SDS011;31429;42.674;23.350;2023-07-16T00:13:42;13.73;;;12.10;;
23163;SDS011;31429;42.674;23.350;2023-07-16T00:14:47;15.93;;;14.25;;
23163;SDS011;31429;42.674;23.350;2023-07-16T00:15:47;16.67;;;12.70;;
23163;SDS011;31429;42.674;23.350;2023-07-16T00:16:48;17.00;;;14.25;;
23163;SDS011;31429;42.674;23.350;2023-07-16T00:17:49;16.30;;;13.95;;
23163;SDS011;31429;42.674;23.350;2023-07-16T00:18:49;13.68;;;11.65;;
23163;SDS011;31429;42.674;23.350;2023-07-16T00:19:51;13.77;;;12.30;;
23163;SDS011;31429;42.674;23.350;2023-07-16T00:20:52;18.10;;;13.32;;
23163;SDS011;31429;42.674;23.350;2023-07-16T00:21:53;17.27;;;13.30;;
23163;SDS011;31429;42.674;23.350;2023-07-16T00:22:53;16.42;;;12.63;;
23163;SDS011;31429;42.674;23.350;2023-07-16T00:23:54;14.40;;;12.95;;
23163;SDS011;31429;42.674;23.350;2023-07-16T00:24:55;14.05;;;12.23;;
23163;SDS011;31429;42.674;23.350;2023-07-16T00:25:56;20.05;;;14.10;;
23163;SDS011;31429;42.674;23.350;2023-07-16T00:26:57;16.88;;;11.98;;
23163;SDS011;31429;42.674;23.350;2023-07-16T00:27:58;12.25;;;10.73;;
23163;SDS011;31429;42.674;23.350;2023-07-16T00:28:58;15.65;;;13.93;;
23163;SDS011;31429;42.674;23.350;2023-07-16T00:29:59;17.63;;;12.93;;
23163;SDS011;31429;42.674;23.350;2023-07-16T00:31:00;17.73;;;11.85;;
23163;SDS011;31429;42.674;23.350;2023-07-16T00:32:00;12.32;;;11.07;;
23163;SDS011;31429;42.674;23.350;2023-07-16T00:33:01;16.20;;;11.52;;
23163;SDS011;31429;42.674;23.350;2023-07-16T00:34:02;12.35;;;10.93;;
23163;SDS011;31429;42.674;23.350;2023-07-16T00:35:05;11.40;;;10.27;;
23163;SDS011;31429;42.674;23.350;2023-07-16T00:36:06;16.05;;;11.57;;
23163;SDS011;31429;42.674;23.350;2023-07-16T00:37:06;13.20;;;10.25;;
23163;SDS011;31429;42.674;23.350;2023-07-16T00:38:07;13.02;;;10.80;;
23163;SDS011;31429;42.674;23.350;2023-07-16T00:39:07;11.50;;;9.93;;
23163;SDS011;31429;42.674;23.350;2023-07-16T00:40:09;12.90;;;10.70;;
23163;SDS011;31429;42.674;23.350;2023-07-16T00:41:10;15.30;;;12.15;;
23163;SDS011;31429;42.674;23.350;2023-07-16T00:42:10;15.60;;;11.18;;
23163;SDS011;31429;42.674;23.350;2023-07-16T00:43:11;11.23;;;10.05;;
23163;SDS011;31429;42.674;23.350;2023-07-16T00:44:11;15.82;;;10.57;;
23163;SDS011;31429;42.674;23.350;2023-07-16T00:45:12;10.77;;;9.68;;
23163;SDS011;31429;42.674;23.350;2023-07-16T00:46:14;10.93;;;9.35;;
23163;SDS011;31429;42.674;23.350;2023-07-16T00:47:16;12.07;;;10.45;;
23163;SDS011;31429;42.674;23.350;2023-07-16T00:48:16;13.90;;;10.68;;
23163;SDS011;31429;42.674;23.350;2023-07-16T00:49:17;15.30;;;10.57;;
23163;SDS011;31429;42.674;23.350;2023-07-16T00:50:19;13.82;;;11.68;;
23163;SDS011;31429;42.674;23.350;2023-07-16T00:51:21;13.85;;;9.70;;
23163;SDS011;31429;42.674;23.350;2023-07-16T00:52:22;13.73;;;10.75;;
23163;SDS011;31429;42.674;23.350;2023-07-16T00:53:23;12.43;;;10.45;;
23163;SDS011;31429;42.674;23.350;2023-07-16T00:54:24;15.05;;;10.98;;
23163;SDS011;31429;42.674;23.350;2023-07-16T00:55:25;11.30;;;9.68;;
23163;SDS011;31429;42.674;23.350;2023-07-16T00:56:27;16.77;;;10.02;;
23163;SDS011;31429;42.674;23.350;2023-07-16T00:57:27;14.35;;;9.77;;
23163;SDS011;31429;42.674;23.350;2023-07-16T00:58:28;16.73;;;9.88;;
23163;SDS011;31429;42.674;23.350;2023-07-16T00:59:29;12.70;;;10.88;;
23163;SDS011;31429;42.674;23.350;2023-07-16T01:00:29;13.52;;;9.20;;
23163;SDS011;31429;42.674;23.350;2023-07-16T01:01:30;12.57;;;9.48;;
23163;SDS011;31429;42.674;23.350;2023-07-16T01:02:30;11.25;;;9.23;;
23163;SDS011;31429;42.674;23.350;2023-07-16T01:03:31;15.45;;;9.27;;
23163;SDS011;31429;42.674;23.350;2023-07-16T01:04:32;11.20;;;10.10;;
23163;SDS011;31429;42.674;23.350;2023-07-16T01:05:36;11.10;;;10.00;;
23163;SDS011;31429;42.674;23.350;2023-07-16T01:06:43;10.15;;;9.02;;
23163;SDS011;31429;42.674;23.350;2023-07-16T01:07:57;15.43;;;9.57;;
23163;SDS011;31429;42.674;23.350;2023-07-16T01:09:02;13.70;;;9.13;;
23163;SDS011;31429;42.674;23.350;2023-07-16T01:10:05;15.15;;;9.57;;
23163;SDS011;31429;42.674;23.350;2023-07-16T01:11:08;13.50;;;8.55;;
23163;SDS011;31429;42.674;23.350;2023-07-16T01:12:10;9.35;;;8.30;;
23163;SDS011;31429;42.674;23.350;2023-07-16T01:13:12;11.57;;;8.20;;
23163;SDS011;31429;42.674;23.350;2023-07-16T01:14:16;10.02;;;8.50;;
23163;SDS011;31429;42.674;23.350;2023-07-16T01:15:17;12.15;;;8.70;;
23163;SDS011;31429;42.674;23.350;2023-07-16T01:16:18;11.27;;;8.48;;
23163;SDS011;31429;42.674;23.350;2023-07-16T01:17:20;12.20;;;7.93;;
23163;SDS011;31429;42.674;23.350;2023-07-16T01:18:21;9.52;;;8.02;;
23163;SDS011;31429;42.674;23.350;2023-07-16T01:19:21;12.02;;;8.13;;
23163;SDS011;31429;42.674;23.350;2023-07-16T01:20:22;14.90;;;8.18;;
23163;SDS011;31429;42.674;23.350;2023-07-16T01:21:24;10.23;;;8.25;;
23163;SDS011;31429;42.674;23.350;2023-07-16T01:22:35;17.67;;;8.27;;
23163;SDS011;31429;42.674;23.350;2023-07-16T01:24:00;11.88;;;7.78;;
23163;SDS011;31429;42.674;23.350;2023-07-16T01:25:26;11.32;;;8.43;;
23163;SDS011;31429;42.674;23.350;2023-07-16T01:26:48;10.55;;;7.97;;
23163;SDS011;31429;42.674;23.350;2023-07-16T01:28:04;10.10;;;8.77;;
23163;SDS011;31429;42.674;23.350;2023-07-16T01:29:29;14.50;;;8.98;;
23163;SDS011;31429;42.674;23.350;2023-07-16T01:30:32;11.07;;;8.13;;
23163;SDS011;31429;42.674;23.350;2023-07-16T01:31:33;8.88;;;7.97;;
23163;SDS011;31429;42.674;23.350;2023-07-16T01:32:34;9.35;;;8.35;;
23163;SDS011;31429;42.674;23.350;2023-07-16T01:33:37;10.63;;;7.32;;
23163;SDS011;31429;42.674;23.350;2023-07-16T01:34:41;12.10;;;8.75;;
23163;SDS011;31429;42.674;23.350;2023-07-16T01:35:43;10.23;;;8.65;;
23163;SDS011;31429;42.674;23.350;2023-07-16T01:36:45;10.95;;;7.80;;
23163;SDS011;31429;42.674;23.350;2023-07-16T01:37:46;10.52;;;7.40;;
23163;SDS011;31429;42.674;23.350;2023-07-16T01:38:47;12.32;;;7.97;;
23163;SDS011;31429;42.674;23.350;2023-07-16T01:39:48;10.52;;;7.10;;
23163;SDS011;31429;42.674;23.350;2023-07-16T01:40:49;13.07;;;7.78;;
23163;SDS011;31429;42.674;23.350;2023-07-16T01:41:49;8.80;;;6.85;;
23163;SDS011;31429;42.674;23.350;2023-07-16T01:42:50;11.93;;;7.57;;
23163;SDS011;31429;42.674;23.350;2023-07-16T01:43:50;10.85;;;7.78;;
23163;SDS011;31429;42.674;23.350;2023-07-16T01:44:52;12.20;;;8.40;;
23163;SDS011;31429;42.674;23.350;2023-07-16T01:45:53;10.18;;;6.68;;
23163;SDS011;31429;42.674;23.350;2023-07-16T01:47:01;10.65;;;7.07;;
23163;SDS011;31429;42.674;23.350;2023-07-16T01:48:10;8.15;;;7.28;;
23163;SDS011;31429;42.674;23.350;2023-07-16T01:49:16;10.73;;;8.25;;
23163;SDS011;31429;42.674;23.350;2023-07-16T01:50:17;12.77;;;7.88;;
23163;SDS011;31429;42.674;23.350;2023-07-16T01:51:17;10.95;;;8.85;;
23163;SDS011;31429;42.674;23.350;2023-07-16T01:52:20;10.85;;;7.35;;
23163;SDS011;31429;42.674;23.350;2023-07-16T01:53:20;9.38;;;7.13;;
23163;SDS011;31429;42.674;23.350;2023-07-16T01:54:21;12.18;;;7.68;;
23163;SDS011;31429;42.674;23.350;2023-07-16T01:55:21;11.50;;;7.65;;
23163;SDS011;31429;42.674;23.350;2023-07-16T01:56:22;10.98;;;7.63;;
23163;SDS011;31429;42.674;23.350;2023-07-16T01:57:23;11.00;;;8.32;;
23163;SDS011;31429;42.674;23.350;2023-07-16T01:58:24;14.15;;;8.98;;
23163;SDS011;31429;42.674;23.350;2023-07-16T01:59:25;11.57;;;8.27;;
23163;SDS011;31429;42.674;23.350;2023-07-16T02:00:26;9.30;;;8.27;;
23163;SDS011;31429;42.674;23.350;2023-07-16T02:01:27;12.38;;;8.27;;
23163;SDS011;31429;42.674;23.350;2023-07-16T02:02:28;8.75;;;7.82;;
23163;SDS011;31429;42.674;23.350;2023-07-16T02:03:28;11.18;;;8.90;;
23163;SDS011;31429;42.674;23.350;2023-07-16T02:04:29;10.73;;;8.30;;
23163;SDS011;31429;42.674;23.350;2023-07-16T02:05:29;10.65;;;9.65;;
23163;SDS011;31429;42.674;23.350;2023-07-16T02:06:30;13.15;;;8.55;;
23163;SDS011;31429;42.674;23.350;2023-07-16T02:07:30;13.50;;;8.77;;
23163;SDS011;31429;42.674;23.350;2023-07-16T02:08:31;9.25;;;8.38;;
23163;SDS011;31429;42.674;23.350;2023-07-16T02:09:33;11.70;;;8.88;;
23163;SDS011;31429;42.674;23.350;2023-07-16T02:10:35;12.00;;;8.85;;
23163;SDS011;31429;42.674;23.350;2023-07-16T02:11:35;9.35;;;8.52;;
23163;SDS011;31429;42.674;23.350;2023-07-16T02:12:36;10.05;;;8.68;;
23163;SDS011;31429;42.674;23.350;2023-07-16T02:13:37;12.65;;;8.77;;
23163;SDS011;31429;42.674;23.350;2023-07-16T02:14:37;10.50;;;7.90;;
23163;SDS011;31429;42.674;23.350;2023-07-16T02:15:39;10.48;;;8.40;;
23163;SDS011;31429;42.674;23.350;2023-07-16T02:16:40;9.95;;;8.98;;
23163;SDS011;31429;42.674;23.350;2023-07-16T02:17:40;10.43;;;7.57;;
23163;SDS011;31429;42.674;23.350;2023-07-16T02:18:41;15.43;;;8.60;;
23163;SDS011;31429;42.674;23.350;2023-07-16T02:19:42;12.98;;;8.27;;
23163;SDS011;31429;42.674;23.350;2023-07-16T02:20:43;12.43;;;8.85;;
23163;SDS011;31429;42.674;23.350;2023-07-16T02:21:44;11.35;;;8.27;;
23163;SDS011;31429;42.674;23.350;2023-07-16T02:22:44;11.40;;;8.52;;
23163;SDS011;31429;42.674;23.350;2023-07-16T02:23:45;12.38;;;8.55;;
23163;SDS011;31429;42.674;23.350;2023-07-16T02:24:46;13.20;;;8.85;;
23163;SDS011;31429;42.674;23.350;2023-07-16T02:25:46;12.23;;;9.10;;
23163;SDS011;31429;42.674;23.350;2023-07-16T02:26:47;15.38;;;8.30;;
23163;SDS011;31429;42.674;23.350;2023-07-16T02:27:47;12.05;;;8.43;;
23163;SDS011;31429;42.674;23.350;2023-07-16T02:28:48;10.98;;;9.15;;
23163;SDS011;31429;42.674;23.350;2023-07-16T02:29:49;12.63;;;9.38;;
23163;SDS011;31429;42.674;23.350;2023-07-16T02:30:51;11.60;;;8.60;;
23163;SDS011;31429;42.674;23.350;2023-07-16T02:31:51;11.20;;;8.70;;
23163;SDS011;31429;42.674;23.350;2023-07-16T02:32:52;8.88;;;8.07;;
23163;SDS011;31429;42.674;23.350;2023-07-16T02:33:52;11.15;;;8.50;;
23163;SDS011;31429;42.674;23.350;2023-07-16T02:34:53;8.38;;;7.50;;
23163;SDS011;31429;42.674;23.350;2023-07-16T02:35:54;8.68;;;7.63;;
23163;SDS011;31429;42.674;23.350;2023-07-16T02:36:54;9.85;;;8.07;;
23163;SDS011;31429;42.674;23.350;2023-07-16T02:37:55;14.35;;;7.80;;
23163;SDS011;31429;42.674;23.350;2023-07-16T02:38:55;9.77;;;7.57;;
23163;SDS011;31429;42.674;23.350;2023-07-16T02:39:56;12.80;;;7.80;;
23163;SDS011;31429;42.674;23.350;2023-07-16T02:40:56;11.20;;;7.70;;
23163;SDS011;31429;42.674;23.350;2023-07-16T02:41:57;10.38;;;7.60;;
23163;SDS011;31429;42.674;23.350;2023-07-16T02:42:58;17.02;;;7.63;;
23163;SDS011;31429;42.674;23.350;2023-07-16T02:43:59;9.82;;;7.05;;
23163;SDS011;31429;42.674;23.350;2023-07-16T02:45:00;10.27;;;7.57;;
23163;SDS011;31429;42.674;23.350;2023-07-16T02:46:02;10.00;;;7.32;;
23163;SDS011;31429;42.674;23.350;2023-07-16T02:47:03;8.27;;;7.47;;
23163;SDS011;31429;42.674;23.350;2023-07-16T02:48:04;8.75;;;7.45;;
23163;SDS011;31429;42.674;23.350;2023-07-16T02:49:06;10.10;;;7.68;;
23163;SDS011;31429;42.674;23.350;2023-07-16T02:50:06;8.77;;;7.88;;
23163;SDS011;31429;42.674;23.350;2023-07-16T02:51:07;15.60;;;7.72;;
23163;SDS011;31429;42.674;23.350;2023-07-16T02:52:08;12.50;;;8.07;;
23163;SDS011;31429;42.674;23.350;2023-07-16T02:53:09;8.27;;;7.43;;
23163;SDS011;31429;42.674;23.350;2023-07-16T02:54:09;7.78;;;7.05;;
23163;SDS011;31429;42.674;23.350;2023-07-16T02:55:10;10.77;;;7.57;;
23163;SDS011;31429;42.674;23.350;2023-07-16T02:56:11;8.48;;;7.47;;
23163;SDS011;31429;42.674;23.350;2023-07-16T02:57:11;8.40;;;7.57;;
23163;SDS011;31429;42.674;23.350;2023-07-16T02:58:12;10.13;;;7.40;;
23163;SDS011;31429;42.674;23.350;2023-07-16T02:59:13;8.63;;;7.78;;
23163;SDS011;31429;42.674;23.350;2023-07-16T03:00:13;8.43;;;7.22;;
23163;SDS011;31429;42.674;23.350;2023-07-16T03:01:16;10.50;;;7.55;;
23163;SDS011;31429;42.674;23.350;2023-07-16T03:02:16;10.02;;;7.25;;
23163;SDS011;31429;42.674;23.350;2023-07-16T03:03:17;9.20;;;7.57;;
23163;SDS011;31429;42.674;23.350;2023-07-16T03:04:17;9.65;;;7.20;;
23163;SDS011;31429;42.674;23.350;2023-07-16T03:05:18;9.23;;;7.00;;
23163;SDS011;31429;42.674;23.350;2023-07-16T03:06:19;8.48;;;7.45;;
23163;SDS011;31429;42.674;23.350;2023-07-16T03:07:19;8.68;;;7.50;;
23163;SDS011;31429;42.674;23.350;2023-07-16T03:08:20;12.55;;;7.82;;
23163;SDS011;31429;42.674;23.350;2023-07-16T03:09:20;9.60;;;6.97;;
23163;SDS011;31429;42.674;23.350;2023-07-16T03:10:21;8.52;;;7.72;;
23163;SDS011;31429;42.674;23.350;2023-07-16T03:11:22;11.13;;;7.13;;
23163;SDS011;31429;42.674;23.350;2023-07-16T03:12:23;9.02;;;7.30;;
23163;SDS011;31429;42.674;23.350;2023-07-16T03:13:23;9.52;;;6.72;;
23163;SDS011;31429;42.674;23.350;2023-07-16T03:14:24;11.20;;;7.43;;
23163;SDS011;31429;42.674;23.350;2023-07-16T03:15:24;12.65;;;7.65;;
23163;SDS011;31429;42.674;23.350;2023-07-16T03:16:26;11.93;;;6.60;;
23163;SDS011;31429;42.674;23.350;2023-07-16T03:17:27;10.77;;;7.00;;
23163;SDS011;31429;42.674;23.350;2023-07-16T03:18:28;13.77;;;7.70;;
23163;SDS011;31429;42.674;23.350;2023-07-16T03:19:29;12.80;;;7.70;;
23163;SDS011;31429;42.674;23.350;2023-07-16T03:20:30;9.63;;;7.43;;
23163;SDS011;31429;42.674;23.350;2023-07-16T03:21:31;8.60;;;6.65;;
23163;SDS011;31429;42.674;23.350;2023-07-16T03:22:31;8.77;;;7.22;;
23163;SDS011;31429;42.674;23.350;2023-07-16T03:23:32;7.30;;;6.60;;
23163;SDS011;31429;42.674;23.350;2023-07-16T03:24:33;7.82;;;7.13;;
23163;SDS011;31429;42.674;23.350;2023-07-16T03:25:33;10.27;;;7.90;;
23163;SDS011;31429;42.674;23.350;2023-07-16T03:26:34;11.13;;;8.82;;
23163;SDS011;31429;42.674;23.350;2023-07-16T03:27:35;11.82;;;9.98;;
23163;SDS011;31429;42.674;23.350;2023-07-16T03:28:36;15.38;;;13.80;;
23163;SDS011;31429;42.674;23.350;2023-07-16T03:29:36;38.20;;;27.98;;
23163;SDS011;31429;42.674;23.350;2023-07-16T03:30:37;58.78;;;43.88;;
23163;SDS011;31429;42.674;23.350;2023-07-16T03:31:39;60.25;;;50.90;;
23163;SDS011;31429;42.674;23.350;2023-07-16T03:32:40;66.38;;;55.83;;
23163;SDS011;31429;42.674;23.350;2023-07-16T03:33:40;51.22;;;42.35;;
23163;SDS011;31429;42.674;23.350;2023-07-16T03:34:41;42.03;;;36.88;;
23163;SDS011;31429;42.674;23.350;2023-07-16T03:35:42;81.68;;;66.63;;
23163;SDS011;31429;42.674;23.350;2023-07-16T03:36:43;44.75;;;34.58;;
23163;SDS011;31429;42.674;23.350;2023-07-16T03:37:43;25.65;;;19.48;;
23163;SDS011;31429;42.674;23.350;2023-07-16T03:38:44;32.67;;;26.80;;
23163;SDS011;31429;42.674;23.350;2023-07-16T03:39:44;63.50;;;51.80;;
23163;SDS011;31429;42.674;23.350;2023-07-16T03:40:46;31.65;;;27.77;;
23163;SDS011;31429;42.674;23.350;2023-07-16T03:41:47;15.20;;;12.55;;
23163;SDS011;31429;42.674;23.350;2023-07-16T03:42:48;226.20;;;197.85;;
23163;SDS011;31429;42.674;23.350;2023-07-16T03:43:49;71.95;;;62.92;;
23163;SDS011;31429;42.674;23.350;2023-07-16T03:44:49;96.40;;;82.20;;
23163;SDS011;31429;42.674;23.350;2023-07-16T03:45:50;20.67;;;15.63;;
23163;SDS011;31429;42.674;23.350;2023-07-16T03:46:52;103.32;;;89.03;;
23163;SDS011;31429;42.674;23.350;2023-07-16T03:47:52;111.35;;;95.32;;
23163;SDS011;31429;42.674;23.350;2023-07-16T03:48:53;132.65;;;107.90;;
23163;SDS011;31429;42.674;23.350;2023-07-16T03:49:54;96.43;;;79.78;;
23163;SDS011;31429;42.674;23.350;2023-07-16T03:50:55;89.30;;;77.00;;
23163;SDS011;31429;42.674;23.350;2023-07-16T03:51:55;154.38;;;131.23;;
23163;SDS011;31429;42.674;23.350;2023-07-16T03:52:56;55.45;;;46.83;;
23163;SDS011;31429;42.674;23.350;2023-07-16T03:53:56;168.23;;;142.80;;
23163;SDS011;31429;42.674;23.350;2023-07-16T03:54:57;136.90;;;117.40;;
23163;SDS011;31429;42.674;23.350;2023-07-16T03:55:57;128.82;;;109.75;;
23163;SDS011;31429;42.674;23.350;2023-07-16T03:56:58;55.50;;;44.22;;
23163;SDS011;31429;42.674;23.350;2023-07-16T03:57:58;72.85;;;61.65;;
23163;SDS011;31429;42.674;23.350;2023-07-16T03:58:59;30.70;;;26.48;;
23163;SDS011;31429;42.674;23.350;2023-07-16T04:00:00;69.18;;;56.83;;
23163;SDS011;31429;42.674;23.350;2023-07-16T04:01:00;82.20;;;68.45;;
23163;SDS011;31429;42.674;23.350;2023-07-16T04:02:03;244.10;;;213.18;;
23163;SDS011;31429;42.674;23.350;2023-07-16T04:03:03;249.63;;;219.18;;
23163;SDS011;31429;42.674;23.350;2023-07-16T04:04:04;240.63;;;210.98;;
23163;SDS011;31429;42.674;23.350;2023-07-16T04:05:05;171.18;;;146.88;;
23163;SDS011;31429;42.674;23.350;2023-07-16T04:06:08;226.23;;;196.20;;
23163;SDS011;31429;42.674;23.350;2023-07-16T04:07:09;184.93;;;161.98;;
23163;SDS011;31429;42.674;23.350;2023-07-16T04:08:10;141.95;;;114.82;;
23163;SDS011;31429;42.674;23.350;2023-07-16T04:09:10;71.88;;;59.38;;
23163;SDS011;31429;42.674;23.350;2023-07-16T04:10:11;54.78;;;45.67;;
23163;SDS011;31429;42.674;23.350;2023-07-16T04:11:11;30.77;;;24.10;;
23163;SDS011;31429;42.674;23.350;2023-07-16T04:12:12;23.95;;;18.35;;
23163;SDS011;31429;42.674;23.350;2023-07-16T04:13:12;16.67;;;12.85;;
23163;SDS011;31429;42.674;23.350;2023-07-16T04:14:13;16.80;;;11.40;;
23163;SDS011;31429;42.674;23.350;2023-07-16T04:15:14;17.05;;;15.30;;
23163;SDS011;31429;42.674;23.350;2023-07-16T04:16:14;11.77;;;9.32;;
23163;SDS011;31429;42.674;23.350;2023-07-16T04:17:16;10.45;;;9.23;;
23163;SDS011;31429;42.674;23.350;2023-07-16T04:18:17;15.32;;;12.10;;
23163;SDS011;31429;42.674;23.350;2023-07-16T04:19:17;20.40;;;17.95;;
23163;SDS011;31429;42.674;23.350;2023-07-16T04:20:18;24.90;;;20.08;;
23163;SDS011;31429;42.674;23.350;2023-07-16T04:21:19;35.10;;;26.88;;
23163;SDS011;31429;42.674;23.350;2023-07-16T04:22:19;40.30;;;33.63;;
23163;SDS011;31429;42.674;23.350;2023-07-16T04:23:20;38.70;;;32.30;;
23163;SDS011;31429;42.674;23.350;2023-07-16T04:24:22;30.20;;;26.48;;
23163;SDS011;31429;42.674;23.350;2023-07-16T04:25:23;30.02;;;24.20;;
23163;SDS011;31429;42.674;23.350;2023-07-16T04:26:24;16.85;;;12.77;;
23163;SDS011;31429;42.674;23.350;2023-07-16T04:27:25;26.83;;;22.23;;
23163;SDS011;31429;42.674;23.350;2023-07-16T04:28:25;25.90;;;20.70;;
23163;SDS011;31429;42.674;23.350;2023-07-16T04:29:26;29.45;;;23.35;;
23163;SDS011;31429;42.674;23.350;2023-07-16T04:30:27;26.13;;;18.75;;
23163;SDS011;31429;42.674;23.350;2023-07-16T04:31:27;22.83;;;17.08;;
23163;SDS011;31429;42.674;23.350;2023-07-16T04:32:29;13.55;;;10.45;;
23163;SDS011;31429;42.674;23.350;2023-07-16T04:33:30;14.55;;;11.85;;
23163;SDS011;31429;42.674;23.350;2023-07-16T04:34:30;17.48;;;13.68;;
23163;SDS011;31429;42.674;23.350;2023-07-16T04:35:31;27.00;;;22.85;;
23163;SDS011;31429;42.674;23.350;2023-07-16T04:36:32;18.40;;;9.73;;
23163;SDS011;31429;42.674;23.350;2023-07-16T04:37:33;20.67;;;13.18;;
23163;SDS011;31429;42.674;23.350;2023-07-16T04:38:33;21.70;;;15.93;;
23163;SDS011;31429;42.674;23.350;2023-07-16T04:39:34;18.13;;;13.95;;
23163;SDS011;31429;42.674;23.350;2023-07-16T04:40:34;21.25;;;16.42;;
23163;SDS011;31429;42.674;23.350;2023-07-16T04:41:35;15.48;;;11.50;;
23163;SDS011;31429;42.674;23.350;2023-07-16T04:42:35;20.73;;;15.27;;
23163;SDS011;31429;42.674;23.350;2023-07-16T04:43:36;12.23;;;10.77;;
23163;SDS011;31429;42.674;23.350;2023-07-16T04:44:37;15.57;;;12.70;;
23163;SDS011;31429;42.674;23.350;2023-07-16T04:45:38;12.52;;;9.60;;
23163;SDS011;31429;42.674;23.350;2023-07-16T04:46:40;14.75;;;9.82;;
23163;SDS011;31429;42.674;23.350;2023-07-16T04:47:41;11.55;;;8.52;;
23163;SDS011;31429;42.674;23.350;2023-07-16T04:48:42;10.63;;;9.57;;
23163;SDS011;31429;42.674;23.350;2023-07-16T04:49:43;10.20;;;9.20;;
23163;SDS011;31429;42.674;23.350;2023-07-16T04:50:43;19.10;;;13.77;;
23163;SDS011;31429;42.674;23.350;2023-07-16T04:51:44;15.65;;;9.93;;
23163;SDS011;31429;42.674;23.350;2023-07-16T04:52:44;11.57;;;8.60;;
23163;SDS011;31429;42.674;23.350;2023-07-16T04:53:45;12.07;;;8.27;;
23163;SDS011;31429;42.674;23.350;2023-07-16T04:54:46;12.27;;;9.85;;
23163;SDS011;31429;42.674;23.350;2023-07-16T04:55:46;13.32;;;11.73;;
23163;SDS011;31429;42.674;23.350;2023-07-16T04:56:47;10.63;;;9.52;;
23163;SDS011;31429;42.674;23.350;2023-07-16T04:57:47;17.00;;;10.35;;
23163;SDS011;31429;42.674;23.350;2023-07-16T04:58:48;16.48;;;12.52;;
23163;SDS011;31429;42.674;23.350;2023-07-16T04:59:48;13.68;;;9.52;;
23163;SDS011;31429;42.674;23.350;2023-07-16T05:00:49;14.02;;;11.75;;
23163;SDS011;31429;42.674;23.350;2023-07-16T05:01:50;15.13;;;10.05;;
23163;SDS011;31429;42.674;23.350;2023-07-16T05:02:52;14.75;;;9.45;;
23163;SDS011;31429;42.674;23.350;2023-07-16T05:03:52;20.70;;;15.90;;
23163;SDS011;31429;42.674;23.350;2023-07-16T05:04:53;13.38;;;10.20;;
23163;SDS011;31429;42.674;23.350;2023-07-16T05:05:54;16.38;;;14.52;;
23163;SDS011;31429;42.674;23.350;2023-07-16T05:06:54;30.45;;;23.90;;
23163;SDS011;31429;42.674;23.350;2023-07-16T05:07:55;9.90;;;8.68;;
23163;SDS011;31429;42.674;23.350;2023-07-16T05:08:55;14.93;;;11.90;;
23163;SDS011;31429;42.674;23.350;2023-07-16T05:09:56;12.63;;;11.32;;
23163;SDS011;31429;42.674;23.350;2023-07-16T05:10:57;14.43;;;10.23;;
23163;SDS011;31429;42.674;23.350;2023-07-16T05:11:59;13.13;;;11.02;;
23163;SDS011;31429;42.674;23.350;2023-07-16T05:12:59;16.88;;;12.23;;
23163;SDS011;31429;42.674;23.350;2023-07-16T05:14:00;17.75;;;12.68;;
23163;SDS011;31429;42.674;23.350;2023-07-16T05:15:01;18.55;;;10.73;;
23163;SDS011;31429;42.674;23.350;2023-07-16T05:16:01;15.32;;;11.43;;
23163;SDS011;31429;42.674;23.350;2023-07-16T05:17:02;13.68;;;11.88;;
23163;SDS011;31429;42.674;23.350;2023-07-16T05:18:05;9.90;;;8.90;;
23163;SDS011;31429;42.674;23.350;2023-07-16T05:19:05;14.02;;;12.45;;
23163;SDS011;31429;42.674;23.350;2023-07-16T05:20:06;12.23;;;8.55;;
23163;SDS011;31429;42.674;23.350;2023-07-16T05:21:09;24.75;;;15.88;;
23163;SDS011;31429;42.674;23.350;2023-07-16T05:22:10;9.52;;;8.35;;
23163;SDS011;31429;42.674;23.350;2023-07-16T05:23:10;8.55;;;7.57;;
23163;SDS011;31429;42.674;23.350;2023-07-16T05:24:11;9.68;;;8.73;;
23163;SDS011;31429;42.674;23.350;2023-07-16T05:25:11;14.73;;;9.18;;
23163;SDS011;31429;42.674;23.350;2023-07-16T05:26:12;19.08;;;13.07;;
23163;SDS011;31429;42.674;23.350;2023-07-16T05:27:12;22.35;;;15.43;;
23163;SDS011;31429;42.674;23.350;2023-07-16T05:28:13;27.10;;;21.55;;
23163;SDS011;31429;42.674;23.350;2023-07-16T05:29:14;14.40;;;10.77;;
23163;SDS011;31429;42.674;23.350;2023-07-16T05:30:14;32.83;;;23.88;;
23163;SDS011;31429;42.674;23.350;2023-07-16T05:31:15;19.40;;;16.10;;
23163;SDS011;31429;42.674;23.350;2023-07-16T05:32:16;19.48;;;10.70;;
23163;SDS011;31429;42.674;23.350;2023-07-16T05:33:18;40.90;;;33.47;;
23163;SDS011;31429;42.674;23.350;2023-07-16T05:34:18;34.33;;;29.35;;
23163;SDS011;31429;42.674;23.350;2023-07-16T05:35:19;10.85;;;7.38;;
23163;SDS011;31429;42.674;23.350;2023-07-16T05:36:19;12.05;;;8.73;;
23163;SDS011;31429;42.674;23.350;2023-07-16T05:37:20;12.00;;;9.52;;
23163;SDS011;31429;42.674;23.350;2023-07-16T05:38:21;18.02;;;14.30;;
23163;SDS011;31429;42.674;23.350;2023-07-16T05:39:21;26.77;;;19.05;;
23163;SDS011;31429;42.674;23.350;2023-07-16T05:40:22;18.80;;;15.77;;
23163;SDS011;31429;42.674;23.350;2023-07-16T05:41:23;28.52;;;21.30;;
23163;SDS011;31429;42.674;23.350;2023-07-16T05:42:23;14.55;;;11.65;;
23163;SDS011;31429;42.674;23.350;2023-07-16T05:43:24;11.93;;;10.70;;
23163;SDS011;31429;42.674;23.350;2023-07-16T05:44:25;11.68;;;8.13;;
23163;SDS011;31429;42.674;23.350;2023-07-16T05:45:25;11.95;;;7.45;;
23163;SDS011;31429;42.674;23.350;2023-07-16T05:46:26;11.95;;;10.30;;
23163;SDS011;31429;42.674;23.350;2023-07-16T05:47:26;16.40;;;10.13;;
23163;SDS011;31429;42.674;23.350;2023-07-16T05:48:28;21.70;;;14.75;;
23163;SDS011;31429;42.674;23.350;2023-07-16T05:49:29;18.92;;;12.20;;
23163;SDS011;31429;42.674;23.350;2023-07-16T05:50:29;11.55;;;8.32;;
23163;SDS011;31429;42.674;23.350;2023-07-16T05:51:30;15.35;;;9.30;;
23163;SDS011;31429;42.674;23.350;2023-07-16T05:52:31;12.20;;;10.13;;
23163;SDS011;31429;42.674;23.350;2023-07-16T05:53:32;15.30;;;10.10;;
23163;SDS011;31429;42.674;23.350;2023-07-16T05:54:32;11.68;;;7.40;;
23163;SDS011;31429;42.674;23.350;2023-07-16T05:55:33;9.70;;;6.80;;
23163;SDS011;31429;42.674;23.350;2023-07-16T05:56:33;11.77;;;10.35;;